Terminal Aerodrome Forecast
Issued by NWS

Home | Current Version | Previous Version | Text Only | Print | Product List | Glossary On
Versions: 1 2 3 4 5 6 7 8 9 10 11 12 13 14 15 16 17 18 19 20 21 22 23 24 25 26 27 28 29 30 31 32
000
FTUS46 KSGX 050520
TAFSNA
TAF
KSNA 050520Z 0506/0606 19005KT P6SM OVC015
     FM051100 19008KT 6SM -DZ BR OVC010
     FM051600 18006KT P6SM OVC015
     FM052100 20009KT P6SM BKN020
     FM060300 23008KT P6SM VCSH BKN028=

USA.gov is the U.S. government's official web portal to all federal, state and local government web resources and services.